Terminal Aerodrome Forecast
Issued by NWS

Home | Current Version | Previous Version | Text Only | Print | Product List | Glossary On
Versions: 1 2 3 4 5 6 7 8 9 10 11 12 13 14 15 16 17 18 19
683
FTUS43 KDLH 170537
TAFHYR
TAF
KHYR 170537Z 1706/1806 26003KT P6SM VCSH OVC080
      TEMPO 1706/1707 4SM -SHRA BR
     FM170800 27004KT 4SM BR OVC015
     FM171500 27007KT P6SM SCT040
     FM171900 27011G17KT P6SM SCT050
     FM180000 25003KT P6SM SKC=

USA.gov is the U.S. government's official web portal to all federal, state and local government web resources and services.